Pagina principale
METAR-TAF:

METAR-TAF

Aeroporti :

Calvi, Francia

Aeroporto di Calvi Sainte-Catherine

latitudine: 42-32N, longitudine: 008-48E, altezza: 64 m

Osservazione

Il bollettino è stato emesso 14 minuti fa, alle 20:30 UTC
Vento 8 kt da sud, variando fra sud-est e sud/sud-ovest
Temperature 25°C
Umidità 54%
Pressione 1005 hPa
Visibilità 10 km o più
nessuna nube inferiore a 1500 m e nessun cumulonembo

METAR: LFKC 252030Z AUTO 18008KT 140V210 CAVOK 25/15 Q1005 NOSIG

Ora: 22:44 (20:44 UTC)

Previsione

Il bollettino è stato emesso 6 ore e 44 minuti fa, alle 14:00 UTC
Previsione valida dal 25 alle 15 UTC al 26 alle 15 UTC
Vento 8 kt da ovest
Visibilità 10 km o più
nessuna nube inferiore a 1500 m e nessun cumulonembo
Evoluzione graduale
dal 26 alle 07 UTC al 26 alle 10 UTC
Vento 6 kt da nord/nord-ovest
Visibilità 10 km o più
Nubi sparse ad un'altezza di 3000 ft

TAF: LFKC 251400Z 2515/2615 28008KT CAVOK BECMG 2607/2610 34006KT 9999 SCT030 TX30/2612Z TN20/2603Z

Osservazioni e previsioni meteorologiche di più di 4000 aeroporti (messaggi METAR e TAF).

Le stazioni disponibili sono rappresentate dai dischi gialli e rossi sulla carta.

Puntare il mouse per vedere il nome della stazione.

Clicca sopra per visualizzare le osservazioni e previsioni meteorologiche.

Per cambiare la mappa : fare clic sui pulsanti verdi con una croce nera per ingrandire, il pulsante verde con un trattino per diminuire, o sulla freccia verde per le mappe adiacenti.


METAR-TAF: